Labadieville, Louisiana
Current Conditions -  °F | °C
As of 4:55 PM on Thursday 18 Dec 2014 (Local Time) from KL38 Reporting Station
Drizzle Drizzle  
Wind Chill: 60°   Ceiling: 2600
Heat Index: 60°   Visibility: 10mi
Dew Point: 56°   Wind: 7mph
Humidity: 88%   Direction: 10°N
Pressure: 30.1"   Gusts: NA
Location:  29.84°N, 90.96°W
Report Text: KL38 182255Z AUTO 01006KT 10SM DZ OVC026 16/14 A3010 RMK AO2 T01550136
Loading
Personal Weather Stations






























Interactive Weather Map New forecast layout! Learn more

10-Day Weather Forecast

Advertisements
Track Severe Weather on mobile